Airfield :
LOGIN :

Register | Disclaimer

   EN    FR    IT 

 










Legend :    VFR   Marginal VFR   IFR   Intensive IFR   Very Intensive IFR
Visi :
Ceiling :
>= 8 km
>= 3000ft
5 to 8 km
1000 to 3000 ft
1500m to 5 km
500 to 1000 ft
800 to 1500m
200 to 500 ft
< 800m
< 200 ft
Symbols :   Thunderstorms  Fog  Heavy snow  Heavy precipitations  Wind > 20 kt
SIGMETs :     Misc.  Thunderstorms  Icing  Turbulence  Mountain Waves  Volcanic Ashes







- Airport Elevation : 1708 ft
- IATA code : SJJ


LQSA - Sarajevo

CURRENT METAR :
  • 231430Z VRB02KT 9999 SCT040 BKN050 18/12 Q1017 NOSIG

EXPIRED METARs :
  • 231400Z 11004KT 070V140 9999 SCT040 BKN050 17/12 Q1017 NOSIG
  • 231330Z 14007KT 9999 -RA SCT040 BKN050 16/12 Q1017 NOSIG
  • 231300Z 12009KT 9999 3000SE -TSRA FEW035CB BKN045 19/10 Q1017 NOSIG
  • 231230Z 03005KT 290V100 9999 TS FEW035CB BKN045 20/09 Q1016 TEMPO TSRA
  • 231200Z 36010KT 320V040 9999 FEW035CB BKN045 21/11 Q1016 TEMPO TSRA

TAF TAF LQSA
Valid from the 23 at 12:00 until the 24 at 12:00 UTC


231100Z 2312/2412 27005KT 9999 FEW035 BKN045 TX25/2313Z TN07/2403Z
TEMPO 2312/2319 VRB15KT 4000 TSRA FEW035CB BKN045
TEMPO 2319/2412 RA
PROB40
TEMPO 2405/2408 3000 -RA BR
No reported NOTAMs for that airfield.



MET'MAP, your aeronautical weather chart ! - Copyright ORBIFLY December 2007 - Disclaimer

ORBIFLY MET'MAP TEAM :

Programming & Development : Alexandra Zaïnal
Concept & Development : Baudouin d'Aumeries
Co-Development & Prog : Marc-Olivier Méhu
Technical & hardware support : Manuel Goepfert

Contact : metmap@orbifly.com




SOURCES & CREDITS :

   NOAA